Weather at Sint-Truiden / Brustem Airfield

Public forecast

Using degrees Celsius for public forecast. Weather courtesy of forecast.io.

Closest aviation weather report (METAR) to Sint-Truiden / Brustem Airfield

Closest report is Liège Airport, 13.0 nm (24.1 km) SE.

2024/07/23 02:50 (retrieved 15 minutes ago)

EBLG 230250Z 19009KT 9999 FEW030 18/14 Q1017 NOSIG

Closest aviation forecast (TAF) to Sint-Truiden / Brustem Airfield

Forecast is more than 12 hours old.

Closest forecast is Florennes Air Base, 39.1 nm (72.4 km) SSW.

2024/07/21 19:57 Ammendment (retrieved 1 day ago)

AMD EBFS 212049Z 2119/2207 30007KT 9999 FEW030 SCT220 BECMG 2121/2123 26004KT BKN020 SCT140 TEMPO 2123/2201 BKN010 BKN015 TEMPO 2203/2206 SCT006 BKN020